createdAt,value
2022-11-28T00:10:01.242Z,1026.96
2022-11-28T00:20:00.264Z,1026.87
2022-11-28T00:30:00.128Z,1026.78
2022-11-28T00:50:01.275Z,1026.69
2022-11-28T01:00:00.245Z,1026.63
2022-11-28T01:10:01.731Z,1026.52
2022-11-28T01:20:00.246Z,1026.35
2022-11-28T01:30:01.515Z,1026.27
2022-11-28T01:50:01.262Z,1026.06
2022-11-28T02:10:00.998Z,1025.94
2022-11-28T02:30:00.997Z,1025.69
2022-11-28T02:50:01.485Z,1025.60
2022-11-28T03:10:01.014Z,1025.31
2022-11-28T03:30:01.269Z,1025.13
2022-11-28T03:50:00.143Z,1024.99
2022-11-28T04:10:01.038Z,1025.02
2022-11-28T04:30:01.078Z,1024.92
2022-11-28T04:50:01.063Z,1024.68
2022-11-28T05:10:01.779Z,1024.68
2022-11-28T05:30:00.980Z,1024.55
2022-11-28T05:50:01.514Z,1024.35
2022-11-28T06:10:01.451Z,1024.11
2022-11-28T06:30:03.211Z,1023.96
2022-11-28T06:50:00.127Z,1023.94
2022-11-28T07:10:01.266Z,1024.02
2022-11-28T07:30:01.076Z,1023.91
2022-11-28T07:50:01.959Z,1023.93
2022-11-28T08:00:02.454Z,1023.92
2022-11-28T08:10:01.182Z,1023.93
2022-11-28T08:20:01.046Z,1023.78
2022-11-28T08:30:01.470Z,1023.67
2022-11-28T08:40:01.248Z,1023.53
2022-11-28T08:50:01.260Z,1023.52
2022-11-28T09:00:01.364Z,1023.56
2022-11-28T09:10:00.134Z,1023.45
2022-11-28T09:20:01.332Z,1023.54
2022-11-28T09:30:01.157Z,1023.44
2022-11-28T09:40:14.476Z,1023.41
2022-11-28T09:50:01.004Z,1023.19
2022-11-28T10:00:02.244Z,1022.91
2022-11-28T10:10:01.243Z,1022.93
2022-11-28T10:20:01.768Z,1023.04
2022-11-28T10:30:01.279Z,1023.07
2022-11-28T10:40:01.812Z,1023.01
2022-11-28T11:40:01.328Z,1022.58
2022-11-28T11:50:00.979Z,1022.52
2022-11-28T12:00:01.380Z,1022.44
2022-11-28T12:20:01.976Z,1022.05
2022-11-28T12:40:03.036Z,1021.90
2022-11-28T12:50:02.341Z,1021.94
2022-11-28T13:00:06.955Z,1021.96
2022-11-28T13:10:01.212Z,1021.95
2022-11-28T13:20:01.377Z,1021.84
2022-11-28T13:30:01.028Z,1021.80
2022-11-28T13:40:01.500Z,1021.79
2022-11-28T13:50:02.216Z,1021.78
2022-11-28T14:00:01.086Z,1021.85
2022-11-28T14:10:01.321Z,1021.79
2022-11-28T14:20:00.200Z,1021.86
2022-11-28T14:30:00.995Z,1021.87
2022-11-28T14:40:01.041Z,1021.98
2022-11-28T14:50:00.158Z,1021.89
2022-11-28T15:00:00.196Z,1022.03
2022-11-28T15:10:05.836Z,1022.16
2022-11-28T15:20:01.296Z,1022.24
2022-11-28T15:30:01.128Z,1022.28
2022-11-28T15:40:01.686Z,1022.28
2022-11-28T15:50:01.369Z,1022.33
2022-11-28T16:00:01.660Z,1022.39
2022-11-28T16:10:01.338Z,1022.39
2022-11-28T16:20:01.129Z,1022.46
2022-11-28T16:30:01.280Z,1022.49
2022-11-28T16:40:01.155Z,1022.48
2022-11-28T16:50:01.407Z,1022.42
2022-11-28T17:00:01.006Z,1022.57
2022-11-28T17:10:01.121Z,1022.57
2022-11-28T17:30:00.152Z,1022.56
2022-11-28T17:40:01.346Z,1022.51
2022-11-28T17:50:01.261Z,1022.42
2022-11-28T18:00:01.279Z,1022.38
2022-11-28T18:10:01.054Z,1022.45
2022-11-28T18:20:01.094Z,1022.62
2022-11-28T18:30:01.068Z,1022.52
2022-11-28T18:40:03.089Z,1022.38
2022-11-28T18:50:01.110Z,1022.43
2022-11-28T19:00:00.469Z,1022.33
2022-11-28T19:10:00.151Z,1022.35
2022-11-28T19:20:01.491Z,1022.43
2022-11-28T19:30:00.975Z,1022.43
2022-11-28T19:40:02.689Z,1022.48
2022-11-28T19:50:01.262Z,1022.48
2022-11-28T20:00:01.352Z,1022.51
2022-11-28T20:10:00.980Z,1022.56
2022-11-28T20:20:01.056Z,1022.68
2022-11-28T20:30:01.539Z,1022.69
2022-11-28T20:40:01.871Z,1022.71
2022-11-28T20:50:03.036Z,1022.76
2022-11-28T21:00:01.327Z,1022.66
2022-11-28T21:10:01.276Z,1022.69
2022-11-28T21:20:01.512Z,1022.73
2022-11-28T21:30:00.129Z,1022.66
2022-11-28T21:40:01.549Z,1022.64
2022-11-28T21:50:01.068Z,1022.59
2022-11-28T22:00:01.241Z,1022.70
2022-11-28T22:10:01.255Z,1022.65
2022-11-28T22:20:01.255Z,1022.74
2022-11-28T22:30:00.992Z,1022.78
2022-11-28T22:40:01.183Z,1022.74
2022-11-28T22:50:03.625Z,1022.77
2022-11-28T23:00:01.563Z,1022.69
2022-11-28T23:10:00.149Z,1022.73
2022-11-28T23:20:01.548Z,1022.71
2022-11-28T23:30:00.131Z,1022.73
2022-11-28T23:40:00.178Z,1022.79
2022-11-28T23:50:01.305Z,1022.80
